sensor_id;sensor_type;location;lat;lon;timestamp;pressure;altitude;pressure_sealevel;temperature;humidity
23303;BME280;11820;48.738;9.092;2023-08-24T00:01:02;96498.75;;;22.72;100.00
23303;BME280;11820;48.738;9.092;2023-08-24T00:03:28;96496.34;;;22.91;100.00
23303;BME280;11820;48.738;9.092;2023-08-24T00:05:53;96497.94;;;22.72;100.00
23303;BME280;11820;48.738;9.092;2023-08-24T00:08:19;96497.94;;;22.62;100.00
23303;BME280;11820;48.738;9.092;2023-08-24T00:10:45;96498.47;;;22.74;100.00
23303;BME280;11820;48.738;9.092;2023-08-24T00:13:14;96496.34;;;22.76;100.00
23303;BME280;11820;48.738;9.092;2023-08-24T00:15:39;96495.03;;;22.63;100.00
23303;BME280;11820;48.738;9.092;2023-08-24T00:18:05;96495.56;;;22.50;100.00
23303;BME280;11820;48.738;9.092;2023-08-24T00:20:31;96488.41;;;22.56;100.00
23303;BME280;11820;48.738;9.092;2023-08-24T00:23:00;96488.44;;;22.61;100.00
23303;BME280;11820;48.738;9.092;2023-08-24T00:25:25;96482.63;;;22.59;100.00
23303;BME280;11820;48.738;9.092;2023-08-24T00:27:53;96475.25;;;22.61;100.00
23303;BME280;11820;48.738;9.092;2023-08-24T00:30:18;96475.97;;;22.21;100.00
23303;BME280;11820;48.738;9.092;2023-08-24T00:32:44;96480.72;;;22.34;100.00
23303;BME280;11820;48.738;9.092;2023-08-24T00:35:09;96479.97;;;22.54;100.00
23303;BME280;11820;48.738;9.092;2023-08-24T00:37:36;96476.03;;;22.46;100.00
23303;BME280;11820;48.738;9.092;2023-08-24T00:40:03;96461.81;;;22.47;100.00
23303;BME280;11820;48.738;9.092;2023-08-24T00:42:42;96458.00;;;22.13;100.00
23303;BME280;11820;48.738;9.092;2023-08-24T00:45:09;96451.69;;;22.14;100.00
23303;BME280;11820;48.738;9.092;2023-08-24T00:47:40;96448.34;;;22.49;100.00
23303;BME280;11820;48.738;9.092;2023-08-24T00:50:09;96452.81;;;22.43;100.00
23303;BME280;11820;48.738;9.092;2023-08-24T00:52:37;96449.69;;;22.51;100.00
23303;BME280;11820;48.738;9.092;2023-08-24T00:55:04;96450.16;;;22.28;100.00
23303;BME280;11820;48.738;9.092;2023-08-24T00:57:31;96443.78;;;22.04;100.00
23303;BME280;11820;48.738;9.092;2023-08-24T00:59:59;96438.78;;;22.13;100.00
23303;BME280;11820;48.738;9.092;2023-08-24T01:02:24;96436.75;;;22.40;100.00
23303;BME280;11820;48.738;9.092;2023-08-24T01:04:49;96443.34;;;22.47;100.00
23303;BME280;11820;48.738;9.092;2023-08-24T01:07:16;96450.69;;;22.40;100.00
23303;BME280;11820;48.738;9.092;2023-08-24T01:09:43;96446.97;;;22.36;100.00
23303;BME280;11820;48.738;9.092;2023-08-24T01:18:08;96440.97;;;22.66;100.00
23303;BME280;11820;48.738;9.092;2023-08-24T01:20:37;96442.53;;;22.37;100.00
23303;BME280;11820;48.738;9.092;2023-08-24T01:26:14;96436.47;;;22.86;100.00
23303;BME280;11820;48.738;9.092;2023-08-24T01:28:43;96431.47;;;22.90;100.00
23303;BME280;11820;48.738;9.092;2023-08-24T01:31:09;96430.66;;;22.89;100.00
23303;BME280;11820;48.738;9.092;2023-08-24T01:33:34;96423.81;;;22.88;100.00
23303;BME280;11820;48.738;9.092;2023-08-24T01:36:00;96423.03;;;22.78;100.00
23303;BME280;11820;48.738;9.092;2023-08-24T01:38:26;96426.47;;;22.48;100.00
23303;BME280;11820;48.738;9.092;2023-08-24T01:43:30;96427.25;;;22.44;100.00
23303;BME280;11820;48.738;9.092;2023-08-24T01:45:59;96427.25;;;22.74;100.00
23303;BME280;11820;48.738;9.092;2023-08-24T01:48:25;96425.16;;;22.66;100.00
23303;BME280;11820;48.738;9.092;2023-08-24T01:50:51;96421.19;;;22.73;100.00
23303;BME280;11820;48.738;9.092;2023-08-24T01:53:17;96423.28;;;22.66;100.00
23303;BME280;11820;48.738;9.092;2023-08-24T01:55:45;96421.19;;;22.63;100.00
23303;BME280;11820;48.738;9.092;2023-08-24T01:58:11;96415.94;;;22.53;100.00
23303;BME280;11820;48.738;9.092;2023-08-24T02:00:36;96410.38;;;22.40;100.00
23303;BME280;11820;48.738;9.092;2023-08-24T02:03:02;96414.31;;;22.27;100.00
23303;BME280;11820;48.738;9.092;2023-08-24T02:05:27;96412.50;;;22.38;100.00
23303;BME280;11820;48.738;9.092;2023-08-24T02:07:54;96425.38;;;22.29;100.00
23303;BME280;11820;48.738;9.092;2023-08-24T02:10:20;96430.13;;;22.32;100.00
23303;BME280;11820;48.738;9.092;2023-08-24T02:12:45;96430.31;;;22.06;100.00
23303;BME280;11820;48.738;9.092;2023-08-24T02:15:10;96426.38;;;22.03;100.00
23303;BME280;11820;48.738;9.092;2023-08-24T02:17:36;96432.13;;;21.90;100.00
23303;BME280;11820;48.738;9.092;2023-08-24T02:20:01;96432.41;;;21.84;100.00
23303;BME280;11820;48.738;9.092;2023-08-24T02:22:29;96429.78;;;21.89;100.00
23303;BME280;11820;48.738;9.092;2023-08-24T02:24:54;96430.31;;;21.96;100.00
23303;BME280;11820;48.738;9.092;2023-08-24T02:27:19;96436.09;;;21.83;100.00
23303;BME280;11820;48.738;9.092;2023-08-24T02:29:45;96426.16;;;22.10;100.00
23303;BME280;11820;48.738;9.092;2023-08-24T02:32:10;96427.16;;;22.04;100.00
23303;BME280;11820;48.738;9.092;2023-08-24T02:34:35;96424.78;;;21.92;100.00
23303;BME280;11820;48.738;9.092;2023-08-24T02:37:01;96417.16;;;22.01;100.00
23303;BME280;11820;48.738;9.092;2023-08-24T02:39:26;96418.72;;;22.02;100.00
23303;BME280;11820;48.738;9.092;2023-08-24T02:41:52;96419.78;;;21.96;100.00
23303;BME280;11820;48.738;9.092;2023-08-24T02:44:17;96421.88;;;21.89;100.00
23303;BME280;11820;48.738;9.092;2023-08-24T02:46:48;96419.25;;;22.04;100.00
23303;BME280;11820;48.738;9.092;2023-08-24T02:49:13;96417.41;;;21.94;100.00
23303;BME280;11820;48.738;9.092;2023-08-24T02:51:38;96418.97;;;21.80;100.00
23303;BME280;11820;48.738;9.092;2023-08-24T02:54:04;96405.53;;;21.87;100.00
23303;BME280;11820;48.738;9.092;2023-08-24T02:56:30;96405.53;;;21.87;100.00
23303;BME280;11820;48.738;9.092;2023-08-24T02:58:55;96409.25;;;21.96;100.00
23303;BME280;11820;48.738;9.092;2023-08-24T03:01:20;96411.53;;;21.67;100.00
23303;BME280;11820;48.738;9.092;2023-08-24T03:03:46;96409.66;;;21.58;100.00
23303;BME280;11820;48.738;9.092;2023-08-24T03:06:11;96395.50;;;21.74;100.00
23303;BME280;11820;48.738;9.092;2023-08-24T03:08:37;96404.50;;;21.83;100.00
23303;BME280;11820;48.738;9.092;2023-08-24T03:11:02;96404.44;;;21.63;100.00
23303;BME280;11820;48.738;9.092;2023-08-24T03:13:29;96406.25;;;21.67;100.00
23303;BME280;11820;48.738;9.092;2023-08-24T03:15:55;96405.38;;;21.47;100.00
23303;BME280;11820;48.738;9.092;2023-08-24T03:18:21;96389.03;;;21.40;100.00
23303;BME280;11820;48.738;9.092;2023-08-24T03:20:48;96384.84;;;21.44;100.00
23303;BME280;11820;48.738;9.092;2023-08-24T03:23:14;96377.06;;;21.69;100.00
23303;BME280;11820;48.738;9.092;2023-08-24T03:25:40;96379.97;;;21.87;100.00
23303;BME280;11820;48.738;9.092;2023-08-24T03:28:07;96381.25;;;21.65;100.00
23303;BME280;11820;48.738;9.092;2023-08-24T03:30:34;96392.97;;;21.38;100.00
23303;BME280;11820;48.738;9.092;2023-08-24T03:33:00;96393.28;;;21.46;100.00
23303;BME280;11820;48.738;9.092;2023-08-24T03:35:26;96396.19;;;21.54;100.00
23303;BME280;11820;48.738;9.092;2023-08-24T03:37:51;96388.88;;;21.61;100.00
23303;BME280;11820;48.738;9.092;2023-08-24T03:40:17;96384.38;;;21.57;100.00
23303;BME280;11820;48.738;9.092;2023-08-24T03:42:42;96375.75;;;21.71;100.00
23303;BME280;11820;48.738;9.092;2023-08-24T03:45:08;96375.47;;;21.68;100.00
23303;BME280;11820;48.738;9.092;2023-08-24T03:47:33;96371.50;;;21.65;100.00
23303;BME280;11820;48.738;9.092;2023-08-24T03:49:59;96365.47;;;21.65;100.00
23303;BME280;11820;48.738;9.092;2023-08-24T03:52:25;96362.03;;;21.64;100.00
23303;BME280;11820;48.738;9.092;2023-08-24T03:54:50;96361.75;;;21.61;100.00
23303;BME280;11820;48.738;9.092;2023-08-24T03:57:15;96350.97;;;21.62;100.00
23303;BME280;11820;48.738;9.092;2023-08-24T03:59:41;96351.28;;;21.86;100.00
23303;BME280;11820;48.738;9.092;2023-08-24T04:02:07;96347.34;;;22.08;100.00
23303;BME280;11820;48.738;9.092;2023-08-24T04:04:32;96342.59;;;22.05;100.00
23303;BME280;11820;48.738;9.092;2023-08-24T04:06:57;96344.72;;;22.23;100.00
23303;BME280;11820;48.738;9.092;2023-08-24T04:09:23;96331.78;;;22.32;100.00
23303;BME280;11820;48.738;9.092;2023-08-24T04:11:48;96336.56;;;22.45;100.00
23303;BME280;11820;48.738;9.092;2023-08-24T04:14:14;96338.13;;;22.51;100.00
23303;BME280;11820;48.738;9.092;2023-08-24T04:16:39;96335.50;;;22.46;100.00
23303;BME280;11820;48.738;9.092;2023-08-24T04:19:05;96334.44;;;22.47;100.00
23303;BME280;11820;48.738;9.092;2023-08-24T04:21:30;96336.03;;;22.53;100.00
23303;BME280;11820;48.738;9.092;2023-08-24T04:23:55;96340.78;;;22.41;100.00
23303;BME280;11820;48.738;9.092;2023-08-24T04:26:21;96337.63;;;22.39;100.00
23303;BME280;11820;48.738;9.092;2023-08-24T04:28:46;96331.28;;;22.50;100.00
23303;BME280;11820;48.738;9.092;2023-08-24T04:31:11;96328.66;;;22.50;100.00
23303;BME280;11820;48.738;9.092;2023-08-24T04:33:36;96329.97;;;22.52;100.00
23303;BME280;11820;48.738;9.092;2023-08-24T04:36:02;96317.84;;;22.51;100.00
23303;BME280;11820;48.738;9.092;2023-08-24T04:38:30;96312.03;;;22.44;100.00
23303;BME280;11820;48.738;9.092;2023-08-24T04:40:56;96321.81;;;22.44;100.00
23303;BME280;11820;48.738;9.092;2023-08-24T04:43:22;96323.91;;;22.42;100.00
23303;BME280;11820;48.738;9.092;2023-08-24T04:45:53;96320.22;;;22.43;100.00
23303;BME280;11820;48.738;9.092;2023-08-24T04:48:23;96320.22;;;22.43;100.00
23303;BME280;11820;48.738;9.092;2023-08-24T04:50:49;96318.63;;;22.47;100.00
23303;BME280;11820;48.738;9.092;2023-08-24T04:53:16;96319.16;;;22.49;100.00
23303;BME280;11820;48.738;9.092;2023-08-24T04:55:42;96323.91;;;22.42;100.00
23303;BME280;11820;48.738;9.092;2023-08-24T04:58:08;96323.91;;;22.52;100.00
23303;BME280;11820;48.738;9.092;2023-08-24T05:00:35;96320.19;;;22.53;100.00
23303;BME280;11820;48.738;9.092;2023-08-24T05:03:02;96328.66;;;22.50;100.00
23303;BME280;11820;48.738;9.092;2023-08-24T05:05:32;96326.53;;;22.57;100.00
23303;BME280;11820;48.738;9.092;2023-08-24T05:07:58;96325.72;;;22.66;100.00
23303;BME280;11820;48.738;9.092;2023-08-24T05:10:24;96310.19;;;22.60;100.00
23303;BME280;11820;48.738;9.092;2023-08-24T05:12:49;96313.28;;;22.82;100.00
23303;BME280;11820;48.738;9.092;2023-08-24T05:15:14;96308.00;;;22.82;100.00
23303;BME280;11820;48.738;9.092;2023-08-24T05:17:40;96311.16;;;22.94;100.00
23303;BME280;11820;48.738;9.092;2023-08-24T05:20:06;96299.25;;;22.96;100.00
23303;BME280;11820;48.738;9.092;2023-08-24T05:22:33;96305.59;;;22.90;100.00
23303;BME280;11820;48.738;9.092;2023-08-24T05:24:58;96302.38;;;23.08;100.00
23303;BME280;11820;48.738;9.092;2023-08-24T05:27:23;96300.53;;;23.14;100.00
23303;BME280;11820;48.738;9.092;2023-08-24T05:29:49;96300.53;;;23.18;100.00
23303;BME280;11820;48.738;9.092;2023-08-24T05:32:14;96294.72;;;23.17;100.00
23303;BME280;11820;48.738;9.092;2023-08-24T05:34:39;96288.91;;;23.19;100.00
23303;BME280;11820;48.738;9.092;2023-08-24T05:37:05;96287.34;;;23.14;100.00
23303;BME280;11820;48.738;9.092;2023-08-24T05:39:30;96279.41;;;23.18;100.00
23303;BME280;11820;48.738;9.092;2023-08-24T05:41:55;96276.28;;;23.02;100.00
23303;BME280;11820;48.738;9.092;2023-08-24T05:44:21;96279.47;;;22.99;100.00
23303;BME280;11820;48.738;9.092;2023-08-24T05:46:46;96278.38;;;23.15;100.00
23303;BME280;11820;48.738;9.092;2023-08-24T05:49:12;96273.50;;;23.36;100.00
23303;BME280;11820;48.738;9.092;2023-08-24T05:51:37;96283.34;;;23.16;100.00
23303;BME280;11820;48.738;9.092;2023-08-24T05:54:03;96282.00;;;23.23;100.00
23303;BME280;11820;48.738;9.092;2023-08-24T05:56:28;96279.31;;;23.33;100.00
23303;BME280;11820;48.738;9.092;2023-08-24T05:58:54;96286.16;;;23.34;100.00
23303;BME280;11820;48.738;9.092;2023-08-24T06:01:20;96282.41;;;23.45;100.00
23303;BME280;11820;48.738;9.092;2023-08-24T06:03:45;96283.03;;;23.27;100.00
23303;BME280;11820;48.738;9.092;2023-08-24T06:06:11;96286.03;;;23.06;100.00
23303;BME280;11820;48.738;9.092;2023-08-24T06:08:37;96289.44;;;23.17;100.00
23303;BME280;11820;48.738;9.092;2023-08-24T06:11:02;96282.16;;;23.42;100.00
23303;BME280;11820;48.738;9.092;2023-08-24T06:13:27;96284.00;;;23.46;100.00
23303;BME280;11820;48.738;9.092;2023-08-24T06:15:53;96282.84;;;23.62;100.00
23303;BME280;11820;48.738;9.092;2023-08-24T06:18:21;96285.09;;;23.40;100.00
23303;BME280;11820;48.738;9.092;2023-08-24T06:20:47;96294.50;;;23.56;100.00
23303;BME280;11820;48.738;9.092;2023-08-24T06:23:15;96290.22;;;23.65;100.00
23303;BME280;11820;48.738;9.092;2023-08-24T06:25:41;96291.50;;;23.68;100.00
23303;BME280;11820;48.738;9.092;2023-08-24T06:28:06;96300.03;;;23.60;100.00
23303;BME280;11820;48.738;9.092;2023-08-24T06:30:37;96293.94;;;23.64;100.00
23303;BME280;11820;48.738;9.092;2023-08-24T06:33:04;96297.00;;;23.76;100.00
23303;BME280;11820;48.738;9.092;2023-08-24T06:35:29;96298.00;;;23.90;100.00
23303;BME280;11820;48.738;9.092;2023-08-24T06:37:55;96297.44;;;23.93;100.00
23303;BME280;11820;48.738;9.092;2023-08-24T06:40:20;96310.94;;;23.92;100.00
23303;BME280;11820;48.738;9.092;2023-08-24T06:42:45;96316.53;;;23.80;100.00
23303;BME280;11820;48.738;9.092;2023-08-24T06:45:11;96326.00;;;23.91;100.00
23303;BME280;11820;48.738;9.092;2023-08-24T06:47:37;96326.22;;;24.00;100.00
23303;BME280;11820;48.738;9.092;2023-08-24T06:50:02;96344.38;;;24.06;100.00
23303;BME280;11820;48.738;9.092;2023-08-24T06:52:28;96359.50;;;24.01;100.00
23303;BME280;11820;48.738;9.092;2023-08-24T06:54:53;96368.81;;;23.93;100.00
23303;BME280;11820;48.738;9.092;2023-08-24T06:57:21;96379.06;;;24.00;100.00
23303;BME280;11820;48.738;9.092;2023-08-24T06:59:46;96373.41;;;24.16;100.00
23303;BME280;11820;48.738;9.092;2023-08-24T07:02:12;96370.16;;;24.24;100.00
23303;BME280;11820;48.738;9.092;2023-08-24T07:04:37;96368.97;;;24.40;100.00
23303;BME280;11820;48.738;9.092;2023-08-24T07:07:05;96353.22;;;24.25;100.00
23303;BME280;11820;48.738;9.092;2023-08-24T07:09:30;96345.59;;;24.19;100.00
23303;BME280;11820;48.738;9.092;2023-08-24T07:11:56;96346.72;;;24.13;100.00
23303;BME280;11820;48.738;9.092;2023-08-24T07:14:21;96343.88;;;24.38;100.00
23303;BME280;11820;48.738;9.092;2023-08-24T07:16:46;96327.34;;;24.22;100.00
23303;BME280;11820;48.738;9.092;2023-08-24T07:19:12;96327.75;;;24.34;100.00
23303;BME280;11820;48.738;9.092;2023-08-24T07:21:37;96317.75;;;24.31;100.00
23303;BME280;11820;48.738;9.092;2023-08-24T07:24:03;96318.84;;;24.25;100.00
23303;BME280;11820;48.738;9.092;2023-08-24T07:26:36;96309.31;;;24.29;100.00
23303;BME280;11820;48.738;9.092;2023-08-24T07:29:02;96305.69;;;24.20;100.00
23303;BME280;11820;48.738;9.092;2023-08-24T07:31:27;96315.09;;;24.31;100.00
23303;BME280;11820;48.738;9.092;2023-08-24T07:33:52;96320.91;;;24.33;100.00
23303;BME280;11820;48.738;9.092;2023-08-24T07:36:18;96312.81;;;24.53;100.00
23303;BME280;11820;48.738;9.092;2023-08-24T07:38:45;96316.34;;;24.39;100.00
23303;BME280;11820;48.738;9.092;2023-08-24T07:41:11;96313.47;;;24.35;100.00
23303;BME280;11820;48.738;9.092;2023-08-24T07:43:37;96312.41;;;24.36;100.00
23303;BME280;11820;48.738;9.092;2023-08-24T07:46:02;96303.94;;;24.39;100.00
23303;BME280;11820;48.738;9.092;2023-08-24T07:48:28;96314.38;;;24.54;100.00
23303;BME280;11820;48.738;9.092;2023-08-24T07:50:53;96315.69;;;24.57;100.00
23303;BME280;11820;48.738;9.092;2023-08-24T07:53:18;96311.81;;;24.73;100.00
23303;BME280;11820;48.738;9.092;2023-08-24T07:55:44;96314.25;;;24.69;100.00
23303;BME280;11820;48.738;9.092;2023-08-24T07:58:10;96309.41;;;24.76;100.00
23303;BME280;11820;48.738;9.092;2023-08-24T08:00:35;96309.97;;;24.73;100.00
23303;BME280;11820;48.738;9.092;2023-08-24T08:03:00;96318.34;;;24.80;100.00
23303;BME280;11820;48.738;9.092;2023-08-24T08:05:26;96321.63;;;24.95;100.00
23303;BME280;11820;48.738;9.092;2023-08-24T08:07:51;96324.78;;;24.97;100.00
23303;BME280;11820;48.738;9.092;2023-08-24T08:10:17;96325.06;;;24.96;100.00
23303;BME280;11820;48.738;9.092;2023-08-24T08:12:43;96324.50;;;24.99;100.00
23303;BME280;11820;48.738;9.092;2023-08-24T08:15:08;96335.88;;;24.99;100.00
23303;BME280;11820;48.738;9.092;2023-08-24T08:17:34;96342.41;;;25.07;100.00
23303;BME280;11820;48.738;9.092;2023-08-24T08:19:59;96325.81;;;25.25;100.00
23303;BME280;11820;48.738;9.092;2023-08-24T08:22:25;96330.19;;;25.34;100.00
23303;BME280;11820;48.738;9.092;2023-08-24T08:24:51;96325.63;;;25.40;100.00
23303;BME280;11820;48.738;9.092;2023-08-24T08:27:19;96328.13;;;25.50;100.00
23303;BME280;11820;48.738;9.092;2023-08-24T08:29:45;96314.81;;;25.55;100.00
23303;BME280;11820;48.738;9.092;2023-08-24T08:32:10;96320.94;;;25.55;100.00
23303;BME280;11820;48.738;9.092;2023-08-24T08:34:40;96322.00;;;25.73;100.00
23303;BME280;11820;48.738;9.092;2023-08-24T08:37:05;96312.22;;;25.92;100.00
23303;BME280;11820;48.738;9.092;2023-08-24T08:39:32;96310.34;;;25.92;100.00
23303;BME280;11820;48.738;9.092;2023-08-24T08:41:58;96315.41;;;26.07;100.00
23303;BME280;11820;48.738;9.092;2023-08-24T08:44:25;96312.22;;;26.24;100.00
23303;BME280;11820;48.738;9.092;2023-08-24T08:46:56;96307.56;;;26.16;100.00
23303;BME280;11820;48.738;9.092;2023-08-24T08:49:22;96311.75;;;25.85;100.00
23303;BME280;11820;48.738;9.092;2023-08-24T08:51:47;96305.34;;;25.91;100.00
23303;BME280;11820;48.738;9.092;2023-08-24T08:54:12;96313.34;;;26.04;100.00
23303;BME280;11820;48.738;9.092;2023-08-24T08:56:38;96318.97;;;26.16;100.00
23303;BME280;11820;48.738;9.092;2023-08-24T08:59:07;96318.78;;;26.26;100.00
23303;BME280;11820;48.738;9.092;2023-08-24T09:01:33;96311.72;;;26.22;100.00
23303;BME280;11820;48.738;9.092;2023-08-24T09:03:59;96310.75;;;26.18;100.00
23303;BME280;11820;48.738;9.092;2023-08-24T09:06:25;96315.06;;;26.27;100.00
23303;BME280;11820;48.738;9.092;2023-08-24T09:08:51;96308.81;;;26.37;100.00
23303;BME280;11820;48.738;9.092;2023-08-24T09:11:17;96303.28;;;26.52;100.00
23303;BME280;11820;48.738;9.092;2023-08-24T09:13:44;96295.81;;;26.54;100.00
23303;BME280;11820;48.738;9.092;2023-08-24T09:16:10;96293.19;;;26.67;100.00
23303;BME280;11820;48.738;9.092;2023-08-24T09:18:42;96288.47;;;26.77;100.00
23303;BME280;11820;48.738;9.092;2023-08-24T09:21:09;96284.72;;;26.78;100.00
23303;BME280;11820;48.738;9.092;2023-08-24T09:23:35;96276.28;;;26.76;100.00
23303;BME280;11820;48.738;9.092;2023-08-24T09:26:00;96269.09;;;26.77;100.00
23303;BME280;11820;48.738;9.092;2023-08-24T09:28:25;96257.38;;;26.91;100.00
23303;BME280;11820;48.738;9.092;2023-08-24T09:30:54;96254.06;;;26.99;100.00
23303;BME280;11820;48.738;9.092;2023-08-24T09:33:20;96253.09;;;27.09;100.00
23303;BME280;11820;48.738;9.092;2023-08-24T09:35:52;96258.75;;;27.29;100.00
23303;BME280;11820;48.738;9.092;2023-08-24T09:38:22;96256.00;;;27.21;100.00
23303;BME280;11820;48.738;9.092;2023-08-24T09:40:51;96253.69;;;27.41;100.00
23303;BME280;11820;48.738;9.092;2023-08-24T09:43:17;96256.56;;;27.45;100.00
23303;BME280;11820;48.738;9.092;2023-08-24T09:45:53;96246.00;;;27.53;100.00
23303;BME280;11820;48.738;9.092;2023-08-24T09:48:19;96245.88;;;27.58;100.00
23303;BME280;11820;48.738;9.092;2023-08-24T09:50:46;96234.50;;;27.66;100.00
23303;BME280;11820;48.738;9.092;2023-08-24T09:53:24;96223.41;;;27.64;100.00
23303;BME280;11820;48.738;9.092;2023-08-24T09:56:00;96222.97;;;27.84;100.00
23303;BME280;11820;48.738;9.092;2023-08-24T09:58:26;96208.63;;;27.94;100.00
23303;BME280;11820;48.738;9.092;2023-08-24T10:00:52;96201.53;;;28.11;100.00
23303;BME280;11820;48.738;9.092;2023-08-24T10:03:19;96201.09;;;28.18;100.00
23303;BME280;11820;48.738;9.092;2023-08-24T10:05:55;96186.56;;;28.24;100.00
23303;BME280;11820;48.738;9.092;2023-08-24T10:08:37;96187.13;;;28.34;100.00
23303;BME280;11820;48.738;9.092;2023-08-24T10:11:05;96181.50;;;28.44;100.00
23303;BME280;11820;48.738;9.092;2023-08-24T10:13:50;96175.59;;;28.55;100.00
23303;BME280;11820;48.738;9.092;2023-08-24T10:16:19;96166.41;;;28.61;100.00
23303;BME280;11820;48.738;9.092;2023-08-24T10:18:45;96167.84;;;28.76;100.00
23303;BME280;11820;48.738;9.092;2023-08-24T10:21:12;96158.13;;;28.80;100.00
23303;BME280;11820;48.738;9.092;2023-08-24T10:23:38;96161.00;;;28.92;100.00
23303;BME280;11820;48.738;9.092;2023-08-24T10:26:06;96159.00;;;29.14;100.00
23303;BME280;11820;48.738;9.092;2023-08-24T10:28:32;96150.34;;;29.34;100.00
23303;BME280;11820;48.738;9.092;2023-08-24T10:30:59;96147.56;;;29.31;99.04
23303;BME280;11820;48.738;9.092;2023-08-24T10:33:25;96145.06;;;29.60;99.96
23303;BME280;11820;48.738;9.092;2023-08-24T10:35:51;96137.50;;;29.79;98.63
23303;BME280;11820;48.738;9.092;2023-08-24T10:38:28;96145.13;;;30.06;98.52
23303;BME280;11820;48.738;9.092;2023-08-24T10:40:55;96140.25;;;30.16;96.03
23303;BME280;11820;48.738;9.092;2023-08-24T10:43:27;96133.41;;;30.35;97.20
23303;BME280;11820;48.738;9.092;2023-08-24T10:46:02;96134.28;;;30.56;95.67
23303;BME280;11820;48.738;9.092;2023-08-24T10:48:45;96131.47;;;30.44;95.74
23303;BME280;11820;48.738;9.092;2023-08-24T10:53:47;96121.38;;;30.58;93.96
23303;BME280;11820;48.738;9.092;2023-08-24T10:56:16;96115.03;;;30.92;94.97
23303;BME280;11820;48.738;9.092;2023-08-24T10:58:45;96121.41;;;30.99;95.25
23303;BME280;11820;48.738;9.092;2023-08-24T11:01:18;96111.56;;;30.91;95.49
23303;BME280;11820;48.738;9.092;2023-08-24T11:03:51;96105.94;;;31.13;94.86
23303;BME280;11820;48.738;9.092;2023-08-24T11:06:24;96099.06;;;31.04;95.23
23303;BME280;11820;48.738;9.092;2023-08-24T11:09:09;96102.31;;;31.30;94.67
23303;BME280;11820;48.738;9.092;2023-08-24T11:11:39;96107.31;;;31.52;93.20
23303;BME280;11820;48.738;9.092;2023-08-24T11:14:15;96103.56;;;31.65;91.47
23303;BME280;11820;48.738;9.092;2023-08-24T11:16:45;96100.97;;;31.56;91.07
23303;BME280;11820;48.738;9.092;2023-08-24T11:19:11;96086.75;;;31.64;90.08
23303;BME280;11820;48.738;9.092;2023-08-24T11:21:38;96093.84;;;31.60;90.84
23303;BME280;11820;48.738;9.092;2023-08-24T11:24:05;96101.28;;;31.55;90.70
23303;BME280;11820;48.738;9.092;2023-08-24T11:26:30;96093.16;;;31.84;89.90
23303;BME280;11820;48.738;9.092;2023-08-24T11:28:56;96083.16;;;31.93;89.45
23303;BME280;11820;48.738;9.092;2023-08-24T11:31:23;96073.88;;;31.90;88.62
23303;BME280;11820;48.738;9.092;2023-08-24T11:33:53;96065.66;;;32.07;88.84
23303;BME280;11820;48.738;9.092;2023-08-24T11:36:20;96074.69;;;32.50;86.97
23303;BME280;11820;48.738;9.092;2023-08-24T11:38:46;96068.00;;;32.56;85.90
23303;BME280;11820;48.738;9.092;2023-08-24T11:41:17;96065.84;;;32.86;84.99
23303;BME280;11820;48.738;9.092;2023-08-24T11:43:43;96063.66;;;33.03;82.78
23303;BME280;11820;48.738;9.092;2023-08-24T11:46:09;96056.91;;;33.64;81.75
23303;BME280;11820;48.738;9.092;2023-08-24T11:48:35;96047.84;;;36.98;72.64
23303;BME280;11820;48.738;9.092;2023-08-24T11:51:02;96054.31;;;41.75;58.22
23303;BME280;11820;48.738;9.092;2023-08-24T11:53:28;96048.50;;;45.09;48.36
23303;BME280;11820;48.738;9.092;2023-08-24T11:55:57;96046.53;;;47.21;40.43
23303;BME280;11820;48.738;9.092;2023-08-24T11:58:22;96044.66;;;47.84;39.11
23303;BME280;11820;48.738;9.092;2023-08-24T12:00:47;96050.66;;;42.91;42.98
23303;BME280;11820;48.738;9.092;2023-08-24T12:03:13;96046.56;;;44.45;41.58
23303;BME280;11820;48.738;9.092;2023-08-24T12:05:39;96047.19;;;42.83;43.34
23303;BME280;11820;48.738;9.092;2023-08-24T12:08:05;96034.84;;;43.42;42.69
23303;BME280;11820;48.738;9.092;2023-08-24T12:10:31;96042.72;;;43.66;41.60
23303;BME280;11820;48.738;9.092;2023-08-24T12:13:04;96041.16;;;40.04;46.03
23303;BME280;11820;48.738;9.092;2023-08-24T12:15:30;96033.44;;;38.90;48.22
23303;BME280;11820;48.738;9.092;2023-08-24T12:17:55;96032.91;;;37.04;52.23
23303;BME280;11820;48.738;9.092;2023-08-24T12:20:22;96029.31;;;44.25;42.91
23303;BME280;11820;48.738;9.092;2023-08-24T12:22:54;96014.44;;;44.06;42.16
23303;BME280;11820;48.738;9.092;2023-08-24T12:25:24;96006.03;;;46.84;38.50
23303;BME280;11820;48.738;9.092;2023-08-24T12:28:07;95998.78;;;47.97;37.76
23303;BME280;11820;48.738;9.092;2023-08-24T12:31:00;95989.84;;;49.98;34.74
23303;BME280;11820;48.738;9.092;2023-08-24T12:33:30;95980.66;;;51.45;32.07
23303;BME280;11820;48.738;9.092;2023-08-24T12:35:58;95982.38;;;51.33;31.19
23303;BME280;11820;48.738;9.092;2023-08-24T12:38:25;95983.88;;;48.32;33.80
23303;BME280;11820;48.738;9.092;2023-08-24T12:40:51;95964.25;;;46.23;35.34
23303;BME280;11820;48.738;9.092;2023-08-24T12:43:17;95959.88;;;46.54;36.09
23303;BME280;11820;48.738;9.092;2023-08-24T12:45:42;95953.72;;;47.07;34.24
23303;BME280;11820;48.738;9.092;2023-08-24T12:48:08;95955.53;;;47.51;33.63
23303;BME280;11820;48.738;9.092;2023-08-24T12:50:35;95942.00;;;50.76;31.75
23303;BME280;11820;48.738;9.092;2023-08-24T12:53:00;95943.09;;;52.65;30.35
23303;BME280;11820;48.738;9.092;2023-08-24T12:55:27;95941.47;;;51.88;30.47
23303;BME280;11820;48.738;9.092;2023-08-24T12:57:52;95943.13;;;51.38;28.68
23303;BME280;11820;48.738;9.092;2023-08-24T13:00:18;95948.03;;;53.27;27.54
23303;BME280;11820;48.738;9.092;2023-08-24T13:02:44;95941.69;;;52.08;27.93
23303;BME280;11820;48.738;9.092;2023-08-24T13:05:09;95925.66;;;52.87;28.23